Time;durP1;ratioP1;P1;durP2;ratioP2;P2;SDS_P1;SDS_P2;PMS_P1;PMS_P2;Temp;Humidity;BMP_temperature;BMP_pressure;BME280_temperature;BME280_humidity;BME280_pressure;Samples;Min_cycle;Max_cycle;Signal;HPM_P1;HPM_P2
2022/02/26 00:02:33;;;;;;;;;6.00;5.00;;;;;7.32;57.96;101318.72;146606;587;46021;-77
2022/02/26 00:05:25;;;;;;;;;6.75;5.00;;;;;7.36;57.91;101327.56;146607;581;45021;-76
2022/02/26 00:08:17;;;;;;;;;9.00;7.75;;;;;7.37;58.10;101327.66;146610;578;46010;-76
2022/02/26 00:11:09;;;;;;;;;5.75;5.00;;;;;7.42;57.74;101330.59;146607;615;46012;-78
2022/02/26 00:14:01;;;;;;;;;5.50;5.00;;;;;7.43;58.35;101311.75;146610;569;46020;-78
2022/02/26 00:16:54;;;;;;;;;7.00;5.50;;;;;7.43;58.47;101316.91;146607;606;46013;-77
2022/02/26 00:19:45;;;;;;;;;9.50;7.25;;;;;7.43;57.93;101322.06;146607;595;46020;-76
2022/02/26 00:22:38;;;;;;;;;10.25;9.00;;;;;7.44;57.96;101331.59;146606;584;46016;-76
2022/02/26 00:25:29;;;;;;;;;10.00;9.00;;;;;7.46;56.85;101331.72;146604;590;46010;-77
2022/02/26 00:28:22;;;;;;;;;8.00;7.00;;;;;7.51;57.48;101327.81;146605;585;46912;-76
2022/02/26 00:31:15;;;;;;;;;9.75;7.75;;;;;7.53;56.54;101327.09;146608;569;46029;-77
2022/02/26 00:34:07;;;;;;;;;22.25;18.00;;;;;7.59;56.60;101331.81;146601;597;46016;-75
2022/02/26 00:37:00;;;;;;;;;13.50;11.50;;;;;7.66;55.97;101333.16;146606;565;46020;-74
2022/02/26 00:39:52;;;;;;;;;16.00;13.25;;;;;7.64;59.38;101322.75;146604;617;47014;-74
2022/02/26 00:42:44;;;;;;;;;13.25;12.00;;;;;7.59;59.81;101317.22;146607;563;46010;-75
2022/02/26 00:45:36;;;;;;;;;10.75;8.25;;;;;7.56;58.13;101323.84;146603;566;46912;-75
2022/02/26 00:51:40;;;;;;;;;9.75;8.75;;;;;7.55;58.15;101322.97;146602;571;46016;-75
2022/02/26 00:54:32;;;;;;;;;6.50;6.50;;;;;7.54;57.74;101321.19;146608;571;46021;-72
2022/02/26 00:57:24;;;;;;;;;6.50;6.25;;;;;7.55;57.79;101316.91;146606;563;46030;-73
2022/02/26 01:00:16;;;;;;;;;9.00;8.00;;;;;7.57;58.05;101321.41;146609;581;46010;-76
2022/02/26 01:03:08;;;;;;;;;8.00;6.00;;;;;7.56;58.15;101314.44;146606;629;46014;-78
2022/02/26 01:06:00;;;;;;;;;8.00;6.25;;;;;7.56;57.60;101313.53;146607;717;46020;-75
2022/02/26 01:08:52;;;;;;;;;13.25;11.00;;;;;7.54;57.70;101318.59;146604;569;46034;-76
2022/02/26 01:11:45;;;;;;;;;20.75;17.50;;;;;7.52;57.87;101322.75;146605;569;46020;-73
2022/02/26 01:14:38;;;;;;;;;13.75;13.00;;;;;7.51;58.44;101322.66;146602;598;47012;-74
2022/02/26 01:17:30;;;;;;;;;23.25;18.50;;;;;7.48;59.20;101318.16;146606;577;46010;-75
2022/02/26 01:20:23;;;;;;;;;38.00;32.50;;;;;7.45;58.33;101323.09;146605;603;46012;-75
2022/02/26 01:23:15;;;;;;;;;30.50;28.75;;;;;7.39;58.35;101328.69;146603;565;46916;-75
2022/02/26 01:26:07;;;;;;;;;22.75;20.75;;;;;7.26;59.86;101323.41;146603;596;46012;-73
2022/02/26 01:28:59;;;;;;;;;34.25;29.50;;;;;7.20;60.34;101317.81;146606;575;46010;-74
2022/02/26 01:31:51;;;;;;;;;71.75;53.25;;;;;7.17;59.88;101310.75;146604;569;45913;-74
2022/02/26 01:34:43;;;;;;;;;59.75;43.25;;;;;7.14;60.35;101315.66;146608;622;46010;-75
2022/02/26 01:37:35;;;;;;;;;30.50;28.25;;;;;7.06;59.57;101309.03;146604;564;46013;-75
2022/02/26 01:40:27;;;;;;;;;25.25;21.75;;;;;6.99;61.21;101311.06;146605;569;46020;-74
2022/02/26 01:43:19;;;;;;;;;19.25;18.75;;;;;6.89;60.78;101315.53;146606;646;46014;-73
2022/02/26 01:46:13;;;;;;;;;17.50;17.50;;;;;6.82;61.75;101308.13;146605;613;46010;-74
2022/02/26 01:49:05;;;;;;;;;45.25;37.50;;;;;6.74;62.16;101311.78;146605;654;46016;-72
2022/02/26 01:51:56;;;;;;;;;56.00;45.75;;;;;6.67;60.89;101317.25;146606;596;46020;-74
2022/02/26 01:54:49;;;;;;;;;37.25;34.25;;;;;6.62;61.39;101316.91;146604;600;46016;-74
2022/02/26 01:57:42;;;;;;;;;14.25;12.50;;;;;6.59;61.17;101306.34;146605;590;46020;-74
2022/02/26 02:00:35;;;;;;;;;12.50;11.50;;;;;6.52;64.29;101305.78;146603;669;47012;-74
2022/02/26 02:03:27;;;;;;;;;14.75;13.75;;;;;6.43;64.41;101299.13;146608;566;46014;-75
2022/02/26 02:06:20;;;;;;;;;12.00;12.00;;;;;6.41;63.49;101310.09;146603;650;46016;-75
2022/02/26 02:09:12;;;;;;;;;34.75;31.25;;;;;6.40;62.84;101313.47;146604;576;46020;-74
2022/02/26 02:12:04;;;;;;;;;70.00;58.00;;;;;6.47;61.87;101310.56;146605;578;46012;-74
2022/02/26 02:14:56;;;;;;;;;42.00;36.25;;;;;6.54;61.04;101318.00;146612;614;46010;-74
2022/02/26 02:17:49;;;;;;;;;10.50;9.25;;;;;6.61;60.81;101316.78;146605;592;46012;-73
2022/02/26 02:20:42;;;;;;;;;9.50;7.75;;;;;6.64;60.31;101320.50;146607;572;46010;-75
2022/02/26 02:23:34;;;;;;;;;8.25;7.50;;;;;6.68;60.15;101303.59;146603;661;46017;-74
2022/02/26 02:26:26;;;;;;;;;18.50;15.75;;;;;6.76;60.05;101309.31;146607;600;46020;-74
2022/02/26 02:29:18;;;;;;;;;36.25;32.00;;;;;6.81;59.35;101313.12;146604;596;46032;-73
2022/02/26 02:32:11;;;;;;;;;10.50;9.00;;;;;6.83;59.51;101311.59;146607;599;46010;-72
2022/02/26 02:35:03;;;;;;;;;26.50;23.75;;;;;6.82;58.80;101308.13;146603;611;46016;-71
2022/02/26 02:37:55;;;;;;;;;20.25;16.00;;;;;6.86;58.98;101315.28;146609;614;46010;-72
2022/02/26 02:40:50;;;;;;;;;74.67;62.33;;;;;6.87;59.02;101316.19;146606;566;46012;-73
2022/02/26 02:43:43;;;;;;;;;17.25;15.50;;;;;6.86;58.86;101310.12;146611;577;46010;-73
2022/02/26 02:46:35;;;;;;;;;18.50;17.00;;;;;6.84;58.35;101318.53;146605;569;46017;-72
2022/02/26 02:49:28;;;;;;;;;31.00;26.00;;;;;6.83;58.11;101319.31;146605;569;46020;-75
2022/02/26 02:52:20;;;;;;;;;21.75;20.25;;;;;6.82;58.30;101322.66;146606;635;46014;-73
2022/02/26 02:55:14;;;;;;;;;9.00;8.50;;;;;6.83;58.40;101325.37;146608;563;46020;-73
2022/02/26 02:58:07;;;;;;;;;11.00;9.75;;;;;6.85;59.04;101325.47;146606;565;46016;-72
2022/02/26 03:01:00;;;;;;;;;10.50;10.00;;;;;6.84;58.37;101331.41;146607;600;46029;-72
2022/02/26 03:03:52;;;;;;;;;11.75;9.00;;;;;6.84;58.31;101331.41;146606;611;46012;-73
2022/02/26 03:06:44;;;;;;;;;8.00;7.75;;;;;6.87;58.30;101332.53;146609;581;46010;-73
2022/02/26 03:09:36;;;;;;;;;12.50;11.50;;;;;6.89;58.81;101325.81;146603;596;46016;-73
2022/02/26 03:12:28;;;;;;;;;14.25;13.25;;;;;6.91;59.04;101325.94;146603;577;46010;-72
2022/02/26 03:15:20;;;;;;;;;8.00;7.75;;;;;6.92;59.05;101325.16;146604;590;46033;-73
2022/02/26 03:18:12;;;;;;;;;7.25;7.00;;;;;6.91;59.33;101325.94;146605;582;46020;-73
2022/02/26 03:21:05;;;;;;;;;7.75;6.00;;;;;6.87;59.32;101329.06;146606;583;46913;-73
2022/02/26 03:23:56;;;;;;;;;13.00;11.75;;;;;6.81;58.64;101326.91;146608;621;45021;-71
2022/02/26 03:26:55;;;;;;;;;16.25;14.50;;;;;6.82;59.30;101332.97;146606;637;46012;-70
2022/02/26 03:29:48;;;;;;;;;24.00;22.25;;;;;6.79;59.47;101323.34;146606;599;46011;-73
2022/02/26 03:32:41;;;;;;;;;10.00;6.25;;;;;6.74;59.57;101336.66;146606;593;46012;-74
2022/02/26 03:35:33;;;;;;;;;10.75;8.50;;;;;6.64;59.62;101338.53;146608;607;45020;-76
2022/02/26 03:38:26;;;;;;;;;60.00;46.00;;;;;6.60;58.87;101341.63;146604;578;46035;-76
2022/02/26 03:41:17;;;;;;;;;68.75;52.75;;;;;6.53;59.62;101339.38;146604;669;46020;-73
2022/02/26 03:44:10;;;;;;;;;22.50;19.75;;;;;6.44;59.52;101338.66;146605;649;47016;-73
2022/02/26 03:47:03;;;;;;;;;8.50;8.50;;;;;6.34;59.89;101351.63;146603;573;46029;-74
2022/02/26 03:49:55;;;;;;;;;28.50;26.25;;;;;6.26;60.33;101353.56;146604;645;46017;-74
2022/02/26 03:52:48;;;;;;;;;17.75;14.00;;;;;6.19;60.25;101347.06;146606;613;46021;-74
2022/02/26 03:55:40;;;;;;;;;43.00;34.50;;;;;6.16;60.38;101346.81;146603;570;46012;-72
2022/02/26 03:58:32;;;;;;;;;14.00;13.25;;;;;6.11;60.19;101348.16;146604;566;46030;-74
2022/02/26 04:01:26;;;;;;;;;13.25;12.25;;;;;6.09;60.10;101353.94;146605;579;46012;-74
2022/02/26 04:04:18;;;;;;;;;29.50;26.00;;;;;6.05;61.73;101357.97;146606;571;46020;-74
2022/02/26 04:07:11;;;;;;;;;66.00;52.00;;;;;6.00;61.18;101352.44;146603;666;46012;-74
2022/02/26 04:10:03;;;;;;;;;19.00;18.00;;;;;6.01;60.73;101346.53;146606;591;46010;-73
2022/02/26 04:12:55;;;;;;;;;8.00;7.00;;;;;6.05;60.45;101354.50;146605;743;46016;-73
2022/02/26 04:15:47;;;;;;;;;8.00;8.00;;;;;6.10;59.57;101359.19;146606;581;46021;-73
2022/02/26 04:18:39;;;;;;;;;11.50;9.00;;;;;6.14;59.95;101360.38;146607;613;46012;-72
2022/02/26 04:21:32;;;;;;;;;12.00;10.50;;;;;6.15;59.88;101364.72;146608;597;46014;-73
2022/02/26 04:24:25;;;;;;;;;7.50;7.50;;;;;6.14;60.40;101368.09;146605;606;46912;-73
2022/02/26 04:27:17;;;;;;;;;10.00;8.25;;;;;6.10;60.10;101366.03;146607;622;46015;-73
2022/02/26 04:30:12;;;;;;;;;14.00;12.25;;;;;6.06;59.89;101371.72;146604;566;46017;-73
2022/02/26 04:33:04;;;;;;;;;15.50;13.00;;;;;6.00;59.70;101367.88;146607;610;46010;-72
2022/02/26 04:35:58;;;;;;;;;15.50;13.50;;;;;5.95;61.23;101376.00;146604;698;45913;-75
2022/02/26 04:38:50;;;;;;;;;20.50;17.50;;;;;5.87;62.72;101382.19;146604;612;46020;-73
2022/02/26 04:41:42;;;;;;;;;25.25;23.00;;;;;5.77;62.61;101388.28;146605;609;46012;-72
2022/02/26 04:44:34;;;;;;;;;11.00;10.50;;;;;5.70;62.09;101384.31;146608;572;45050;-71
2022/02/26 04:47:26;;;;;;;;;21.00;20.00;;;;;5.69;62.19;101381.59;146606;573;46012;-71
2022/02/26 04:50:19;;;;;;;;;40.50;36.25;;;;;5.67;62.62;101384.06;146606;640;46021;-71
2022/02/26 04:53:11;;;;;;;;;16.50;13.25;;;;;5.66;63.01;101394.22;146603;571;46016;-71
2022/02/26 04:56:03;;;;;;;;;23.75;20.00;;;;;5.65;63.06;101389.84;146605;571;46010;-71
2022/02/26 04:58:55;;;;;;;;;19.50;13.25;;;;;5.62;64.08;101387.03;146604;565;46013;-72
2022/02/26 05:01:48;;;;;;;;;26.75;23.25;;;;;5.60;63.79;101381.75;146602;603;46020;-72
2022/02/26 05:04:40;;;;;;;;;31.25;25.25;;;;;5.57;66.22;101384.06;146604;608;46012;-73
2022/02/26 05:07:32;;;;;;;;;50.50;39.25;;;;;5.50;66.00;101382.66;146609;591;45022;-73
2022/02/26 05:10:25;;;;;;;;;57.25;45.00;;;;;5.44;65.15;101389.87;146605;571;46012;-73
2022/02/26 05:13:17;;;;;;;;;53.75;42.75;;;;;5.45;64.19;101401.06;146606;565;46021;-73
2022/02/26 05:16:10;;;;;;;;;26.75;23.50;;;;;5.49;64.13;101411.75;146601;619;46016;-73
2022/02/26 05:19:02;;;;;;;;;32.00;30.00;;;;;5.58;64.15;101414.19;146627;619;45020;-72
2022/02/26 05:21:54;;;;;;;;;14.50;12.00;;;;;5.62;66.50;101405.03;146629;579;45012;-73
2022/02/26 05:24:46;;;;;;;;;18.25;16.00;;;;;5.64;64.96;101400.91;146628;575;45020;-73
2022/02/26 05:27:40;;;;;;;;;36.75;31.00;;;;;5.66;65.07;101401.94;146626;615;46012;-69
2022/02/26 05:30:33;;;;;;;;;24.25;23.75;;;;;5.70;63.89;101403.97;146628;641;45010;-69
2022/02/26 05:33:25;;;;;;;;;26.00;22.25;;;;;5.79;63.47;101420.16;146626;740;45016;-72
2022/02/26 05:36:17;;;;;;;;;34.25;32.50;;;;;5.95;63.74;101409.47;146625;599;46010;-73
2022/02/26 05:39:09;;;;;;;;;54.00;41.50;;;;;6.16;63.56;101412.87;146626;607;45012;-72
2022/02/26 05:42:01;;;;;;;;;47.75;38.75;;;;;6.77;62.81;101417.69;146631;588;45010;-72
2022/02/26 05:44:54;;;;;;;;;17.00;17.00;;;;;7.69;60.60;101416.87;146624;563;45912;-73
2022/02/26 05:47:45;;;;;;;;;23.00;19.75;;;;;8.41;58.56;101405.72;146629;577;45020;-73
2022/02/26 05:50:38;;;;;;;;;18.00;16.00;;;;;8.73;57.15;101418.34;146622;571;46013;-73
2022/02/26 05:53:30;;;;;;;;;18.75;16.50;;;;;9.06;57.02;101414.56;146628;608;45030;-74
2022/02/26 05:56:22;;;;;;;;;16.50;13.75;;;;;9.62;56.67;101424.34;146626;587;45913;-71
2022/02/26 05:59:13;;;;;;;;;37.50;31.50;;;;;10.44;54.79;101426.25;146629;624;45010;-72
2022/02/26 06:02:06;;;;;;;;;41.25;36.00;;;;;11.32;53.04;101424.69;146627;653;45913;-72
2022/02/26 06:04:58;;;;;;;;;34.00;30.00;;;;;12.18;50.81;101412.38;146624;569;46010;-73
2022/02/26 06:07:50;;;;;;;;;48.00;37.75;;;;;13.00;49.25;101411.53;146627;605;45016;-71
2022/02/26 06:10:43;;;;;;;;;116.25;101.25;;;;;13.74;47.85;101411.91;146632;677;45020;-73
2022/02/26 06:13:35;;;;;;;;;65.00;50.25;;;;;14.46;46.26;101414.44;146628;620;45016;-71
2022/02/26 06:16:27;;;;;;;;;51.50;42.25;;;;;15.14;44.61;101421.91;146626;589;46010;-71
2022/02/26 06:19:19;;;;;;;;;49.25;40.00;;;;;15.66;43.87;101424.13;146604;579;46016;-71
2022/02/26 06:22:11;;;;;;;;;46.00;38.50;;;;;16.05;42.93;101423.13;146606;633;46020;-74
2022/02/26 06:25:03;;;;;;;;;51.75;42.25;;;;;16.37;41.98;101424.38;146603;570;46012;-73
2022/02/26 06:27:55;;;;;;;;;48.25;39.75;;;;;16.38;40.88;101429.66;146604;589;46021;-74
2022/02/26 06:30:48;;;;;;;;;42.75;32.75;;;;;16.06;40.54;101419.66;146604;564;46012;-72
2022/02/26 06:33:39;;;;;;;;;46.75;37.50;;;;;15.49;41.18;101422.53;146605;605;46010;-71
2022/02/26 06:36:33;;;;;;;;;50.75;40.75;;;;;14.64;42.78;101435.28;146603;599;46029;-73
2022/02/26 06:39:25;;;;;;;;;58.50;45.00;;;;;13.77;44.93;101425.06;146607;632;46020;-73
2022/02/26 06:42:18;;;;;;;;;52.00;41.50;;;;;13.20;46.18;101425.59;146604;576;46017;-72
2022/02/26 06:45:10;;;;;;;;;55.75;43.50;;;;;12.82;47.69;101430.56;146607;614;46020;-73
2022/02/26 06:48:02;;;;;;;;;52.25;42.75;;;;;12.47;48.26;101420.88;146603;677;46033;-73
2022/02/26 06:50:54;;;;;;;;;50.75;41.00;;;;;12.13;48.90;101431.13;146608;604;45031;-74
2022/02/26 06:53:46;;;;;;;;;42.75;36.50;;;;;11.90;49.57;101433.31;146607;604;45016;-74
2022/02/26 06:56:38;;;;;;;;;42.75;35.50;;;;;11.86;50.08;101417.44;146605;583;46021;-73
2022/02/26 06:59:32;;;;;;;;;40.25;32.00;;;;;11.89;50.52;101421.09;146605;628;46012;-72
2022/02/26 07:02:24;;;;;;;;;31.00;29.00;;;;;12.08;50.22;101433.44;146606;627;46010;-72
2022/02/26 07:05:16;;;;;;;;;36.00;31.00;;;;;12.40;49.68;101432.66;146606;628;46012;-72
2022/02/26 07:08:08;;;;;;;;;36.25;32.00;;;;;12.70;48.85;101440.31;146608;738;45030;-71
2022/02/26 07:11:00;;;;;;;;;37.75;33.00;;;;;12.93;48.79;101439.84;146604;572;47013;-73
2022/02/26 07:13:52;;;;;;;;;39.75;33.75;;;;;13.19;48.45;101442.94;146607;595;46021;-74
2022/02/26 07:16:45;;;;;;;;;51.25;42.25;;;;;13.48;49.04;101447.03;146606;633;46012;-74
2022/02/26 07:19:37;;;;;;;;;56.25;44.75;;;;;13.67;47.44;101448.88;146606;598;47010;-72
2022/02/26 07:22:29;;;;;;;;;47.25;36.25;;;;;13.81;46.57;101444.38;146603;576;46016;-74
2022/02/26 07:25:21;;;;;;;;;42.50;32.00;;;;;13.89;45.48;101445.62;146609;570;46010;-74
2022/02/26 07:28:15;;;;;;;;;38.50;31.25;;;;;13.90;45.92;101438.72;146603;631;47012;-73
2022/02/26 07:31:07;;;;;;;;;29.00;28.25;;;;;12.95;46.05;101253.38;146605;647;46010;-73
2022/02/26 07:33:59;;;;;;;;;34.25;30.50;;;;;14.19;46.64;101438.41;146602;576;47013;-72
2022/02/26 07:36:51;;;;;;;;;37.25;32.75;;;;;14.37;45.58;101437.50;146605;614;47010;-71
2022/02/26 07:39:43;;;;;;;;;41.50;33.75;;;;;14.40;45.43;101441.13;146602;713;47012;-73
2022/02/26 07:42:35;;;;;;;;;42.75;35.25;;;;;14.37;45.84;101448.81;146606;604;46020;-71
2022/02/26 07:45:28;;;;;;;;;40.75;34.75;;;;;14.38;45.97;101450.59;146601;595;47012;-72
2022/02/26 07:48:20;;;;;;;;;37.75;32.00;;;;;14.44;47.12;101448.28;146606;575;46020;-71
2022/02/26 07:51:12;;;;;;;;;35.00;29.50;;;;;14.59;47.64;101455.97;146603;569;46012;-72
2022/02/26 07:54:04;;;;;;;;;33.25;31.00;;;;;14.81;47.92;101449.12;146607;642;46010;-69
2022/02/26 07:56:56;;;;;;;;;36.25;32.00;;;;;15.08;47.37;101445.16;146604;629;47012;-69
2022/02/26 07:59:48;;;;;;;;;33.00;29.00;;;;;15.34;47.96;101445.41;146605;641;45020;-69
2022/02/26 08:02:40;;;;;;;;;25.75;23.00;;;;;15.59;47.06;101435.16;146603;589;46016;-69
2022/02/26 08:05:33;;;;;;;;;27.25;25.75;;;;;15.73;48.13;101433.13;146605;589;46020;-69
2022/02/26 08:08:26;;;;;;;;;34.00;27.75;;;;;15.85;47.18;101417.06;146603;677;46866;-69
2022/02/26 08:11:18;;;;;;;;;29.00;26.00;;;;;16.13;46.74;101416.44;146606;570;46010;-69
2022/02/26 08:14:10;;;;;;;;;28.75;26.00;;;;;16.38;44.78;101420.91;146605;579;46012;-69
2022/02/26 08:17:02;;;;;;;;;26.00;23.25;;;;;16.56;45.81;101415.50;146607;564;46011;-70
2022/02/26 08:19:55;;;;;;;;;24.50;22.75;;;;;16.78;45.79;101427.72;146602;680;46012;-70
2022/02/26 08:22:47;;;;;;;;;26.75;21.75;;;;;17.01;44.02;101432.06;146605;611;46010;-69
2022/02/26 08:25:39;;;;;;;;;26.75;22.25;;;;;17.07;44.01;101432.31;146604;694;46017;-69
2022/02/26 08:28:31;;;;;;;;;25.00;19.00;;;;;17.19;43.85;101438.81;146602;621;46020;-69
2022/02/26 08:31:23;;;;;;;;;24.00;18.75;;;;;17.27;43.89;101427.75;146603;666;47012;-69
2022/02/26 08:34:15;;;;;;;;;17.00;17.00;;;;;17.34;41.85;101434.09;146606;668;46010;-69
2022/02/26 08:37:08;;;;;;;;;20.50;19.00;;;;;17.33;42.60;101429.72;146603;573;46016;-69
2022/02/26 08:40:00;;;;;;;;;19.00;16.50;;;;;17.23;43.13;101428.50;146602;566;46020;-69
2022/02/26 08:42:52;;;;;;;;;14.75;14.75;;;;;17.11;43.11;101429.78;146604;604;46032;-69
2022/02/26 08:45:45;;;;;;;;;16.00;16.00;;;;;17.01;43.62;101426.84;146606;670;46014;-69
2022/02/26 08:48:37;;;;;;;;;11.50;9.75;;;;;17.06;44.45;101429.63;146604;612;46012;-69
2022/02/26 08:51:30;;;;;;;;;8.00;7.75;;;;;17.15;43.46;101432.56;146606;597;46010;-69
2022/02/26 08:54:23;;;;;;;;;14.00;11.75;;;;;17.21;43.84;101424.03;146603;608;46016;-70
2022/02/26 08:57:15;;;;;;;;;10.00;9.50;;;;;17.27;43.46;101430.37;146604;563;46010;-69
2022/02/26 09:00:10;;;;;;;;;11.50;9.75;;;;;17.16;43.48;101429.09;146605;563;46016;-69
2022/02/26 09:03:03;;;;;;;;;12.25;10.75;;;;;17.10;44.23;101431.50;146605;574;46011;-69
2022/02/26 09:05:55;;;;;;;;;10.50;10.25;;;;;17.01;44.02;101439.94;146602;569;46016;-70
2022/02/26 09:08:47;;;;;;;;;10.75;10.50;;;;;16.93;43.89;101443.09;146607;604;46020;-68
2022/02/26 09:11:41;;;;;;;;;9.75;8.00;;;;;16.78;44.04;101446.03;146601;648;47014;-68
2022/02/26 09:14:33;;;;;;;;;10.75;9.50;;;;;16.78;44.14;101448.66;146606;590;47010;-68
2022/02/26 09:17:25;;;;;;;;;10.00;9.00;;;;;16.80;44.33;101449.63;146603;658;46016;-68
2022/02/26 09:20:18;;;;;;;;;11.25;9.00;;;;;16.79;45.16;101446.13;146608;580;46020;-71
2022/02/26 09:23:10;;;;;;;;;11.25;11.00;;;;;16.84;44.67;101444.53;146606;591;46012;-71
2022/02/26 09:26:04;;;;;;;;;11.50;11.50;;;;;16.93;44.51;101451.84;146606;739;46020;-69
2022/02/26 09:28:56;;;;;;;;;7.75;7.00;;;;;16.98;44.26;101436.31;146604;649;46033;-70
2022/02/26 09:31:50;;;;;;;;;15.75;13.00;;;;;16.89;44.98;101438.59;146607;632;46026;-69
2022/02/26 09:34:42;;;;;;;;;12.25;12.00;;;;;16.79;44.76;101429.47;146605;603;46016;-68
2022/02/26 09:37:34;;;;;;;;;14.50;13.75;;;;;16.71;44.51;101439.66;146606;575;46010;-68
2022/02/26 09:40:26;;;;;;;;;14.00;12.25;;;;;16.67;45.86;101432.53;146604;665;46016;-70
2022/02/26 09:43:18;;;;;;;;;10.75;8.75;;;;;16.63;45.70;101434.16;146608;575;47010;-69
2022/02/26 09:46:12;;;;;;;;;9.00;8.25;;;;;16.57;45.53;101431.28;146604;592;46913;-69
2022/02/26 09:49:05;;;;;;;;;10.75;8.75;;;;;16.51;46.22;101435.38;146610;720;46010;-69
2022/02/26 09:51:58;;;;;;;;;10.75;10.75;;;;;16.37;46.72;101430.50;146602;620;47012;-68
2022/02/26 09:54:53;;;;;;;;;10.50;9.50;;;;;16.19;47.18;101426.28;146607;632;46010;-68
2022/02/26 09:57:45;;;;;;;;;12.50;10.75;;;;;16.01;48.22;101427.34;146603;708;46016;-70
2022/02/26 10:00:37;;;;;;;;;17.00;12.50;;;;;15.90;47.90;101418.16;146604;616;47015;-69
2022/02/26 10:03:35;;;;;;;;;9.50;9.50;;;;;15.89;47.69;101419.00;146606;589;46012;-68
2022/02/26 10:06:31;;;;;;;;;11.00;10.00;;;;;16.03;48.65;101423.06;146605;613;46014;-68
2022/02/26 10:09:23;;;;;;;;;10.25;10.00;;;;;16.26;47.98;101410.91;146602;643;47014;-70
2022/02/26 10:12:36;;;;;;;;;12.75;12.00;;;;;16.46;47.01;101409.03;146605;612;46020;-68
2022/02/26 10:15:38;;;;;;;;;8.50;8.00;;;;;16.65;46.76;101413.25;146603;628;46017;-69
2022/02/26 10:18:29;;;;;;;;;13.25;12.50;;;;;16.80;46.90;101402.47;146606;620;46020;-70
2022/02/26 10:21:40;;;;;;;;;8.50;8.00;;;;;16.84;46.34;101400.00;146606;620;46012;-69
2022/02/26 10:24:33;;;;;;;;;11.50;10.00;;;;;16.82;46.05;101395.56;146605;654;46011;-70
2022/02/26 10:27:30;;;;;;;;;12.25;9.00;;;;;16.91;46.31;101390.66;146604;577;46016;-68
2022/02/26 10:30:28;;;;;;;;;7.00;7.00;;;;;16.92;45.39;101376.72;146606;581;46021;-69
2022/02/26 10:33:27;;;;;;;;;10.50;9.25;;;;;16.98;46.61;101382.19;146603;613;46016;-69
2022/02/26 10:36:19;;;;;;;;;11.75;10.25;;;;;17.11;46.65;101378.28;146608;579;46010;-69
2022/02/26 10:39:11;;;;;;;;;12.75;10.00;;;;;17.38;45.97;101373.06;146606;600;46012;-68
2022/02/26 10:42:03;;;;;;;;;12.25;11.25;;;;;17.55;45.60;101379.78;146608;563;46010;-68
2022/02/26 10:45:22;;;;;;;;;8.00;7.00;;;;;17.51;45.48;101383.16;146603;565;47014;-68
2022/02/26 10:48:14;;;;;;;;;10.50;10.50;;;;;17.52;45.88;101374.44;146606;582;46021;-68
2022/02/26 10:51:07;;;;;;;;;11.50;10.25;;;;;17.28;46.70;101370.97;146602;589;46012;-67
2022/02/26 10:53:59;;;;;;;;;13.50;12.75;;;;;17.02;47.33;101372.72;146604;685;46021;-68
2022/02/26 10:56:51;;;;;;;;;10.50;9.75;;;;;16.87;48.04;101373.03;146603;649;46032;-68
2022/02/26 10:59:46;;;;;;;;;9.75;7.25;;;;;16.90;49.04;101364.41;146606;579;46020;-68
2022/02/26 11:02:38;;;;;;;;;10.25;10.25;;;;;16.97;48.22;101369.91;146604;581;46016;-68
2022/02/26 11:05:30;;;;;;;;;12.75;10.25;;;;;16.97;47.91;101351.56;146606;584;46010;-69
2022/02/26 11:08:23;;;;;;;;;13.75;11.75;;;;;17.02;48.71;101364.84;146604;663;46038;-69
2022/02/26 11:11:15;;;;;;;;;9.75;9.75;;;;;17.11;48.23;101351.19;146607;566;46010;-69
2022/02/26 11:14:08;;;;;;;;;10.25;7.25;;;;;17.22;47.81;101339.31;146604;596;47012;-68
2022/02/26 11:17:04;;;;;;;;;9.00;9.00;;;;;17.29;47.42;101347.47;146606;612;47011;-68
2022/02/26 11:20:09;;;;;;;;;11.25;8.25;;;;;17.20;47.08;101333.16;146606;598;46034;-68
2022/02/26 11:23:02;;;;;;;;;11.25;9.75;;;;;17.13;48.68;101339.00;146606;564;46010;-69
2022/02/26 11:25:55;;;;;;;;;8.50;8.50;;;;;17.17;47.58;101339.19;146605;619;46012;-69
2022/02/26 11:28:54;;;;;;;;;11.75;10.50;;;;;17.25;47.12;101337.69;146607;586;46010;-69
2022/02/26 11:32:08;;;;;;;;;8.75;7.50;;;;;17.31;46.32;101327.41;146605;569;46014;-68
2022/02/26 11:35:26;;;;;;;;;13.00;12.00;;;;;17.35;47.40;101331.03;146610;577;45020;-69
2022/02/26 11:38:25;;;;;;;;;8.75;8.75;;;;;17.37;46.77;101326.72;146605;654;46014;-68
2022/02/26 11:41:31;;;;;;;;;11.00;10.00;;;;;17.27;46.88;101328.16;146606;563;46010;-68
2022/02/26 11:44:43;;;;;;;;;9.00;9.00;;;;;17.15;47.00;101316.38;146601;571;46013;-68
2022/02/26 11:48:02;;;;;;;;;9.00;7.75;;;;;17.07;46.89;101316.09;146608;595;46010;-68
2022/02/26 11:50:55;;;;;;;;;16.75;13.75;;;;;17.06;46.88;101317.84;146603;564;46016;-69
2022/02/26 11:53:48;;;;;;;;;11.25;9.50;;;;;17.11;46.65;101317.12;146607;692;46010;-69
2022/02/26 11:56:59;;;;;;;;;9.50;7.50;;;;;17.13;46.47;101310.19;146606;673;46016;-68
2022/02/26 11:59:51;;;;;;;;;14.00;13.50;;;;;17.07;46.04;101300.38;146605;586;46021;-68
2022/02/26 12:02:43;;;;;;;;;8.75;7.25;;;;;16.91;44.86;101317.28;146605;620;46016;-69
2022/02/26 12:05:35;;;;;;;;;3.00;3.00;;;;;16.80;45.87;101295.09;146604;581;46020;-68
2022/02/26 12:08:47;;;;;;;;;7.00;6.00;;;;;16.68;43.54;101300.75;146607;664;47012;-67
2022/02/26 12:11:51;;;;;;;;;6.25;6.25;;;;;16.54;43.32;101299.34;146608;723;46010;-71
2022/02/26 12:15:00;;;;;;;;;4.00;3.75;;;;;16.48;43.41;101286.97;146603;588;46017;-67
2022/02/26 12:18:31;;;;;;;;;7.00;5.50;;;;;15.65;42.08;101171.38;146607;686;46020;-68
2022/02/26 12:21:24;;;;;;;;;8.00;6.75;;;;;16.28;42.59;101295.78;146606;577;46014;-69
2022/02/26 12:24:55;;;;;;;;;5.00;5.00;;;;;16.19;44.48;101279.75;146605;597;46029;-69
2022/02/26 12:27:59;;;;;;;;;5.50;5.00;;;;;16.10;42.87;101289.03;146603;569;47014;-70
2022/02/26 12:31:12;;;;;;;;;5.25;5.00;;;;;16.04;43.36;101267.87;146606;581;46021;-68
2022/02/26 12:34:16;;;;;;;;;7.25;6.00;;;;;16.11;43.67;101285.59;146602;584;46029;-69
2022/02/26 12:37:14;;;;;;;;;6.75;6.00;;;;;16.04;44.26;101278.31;146609;699;46010;-69
2022/02/26 12:40:31;;;;;;;;;4.00;4.00;;;;;15.05;44.01;101092.44;146603;589;46016;-69
2022/02/26 12:43:30;;;;;;;;;4.75;4.25;;;;;16.10;42.99;101269.81;146608;564;46010;-68
2022/02/26 12:46:23;;;;;;;;;5.00;5.00;;;;;16.29;43.07;101271.41;146607;665;46017;-68
2022/02/26 12:49:17;;;;;;;;;5.50;5.50;;;;;16.45;41.84;101280.69;146609;610;46014;-68
2022/02/26 12:52:11;;;;;;;;;6.75;4.25;;;;;16.57;40.73;101263.72;146604;583;47012;-69
2022/02/26 12:55:08;;;;;;;;;8.50;7.75;;;;;16.70;40.48;101261.50;146605;634;47010;-69
2022/02/26 12:58:00;;;;;;;;;6.00;4.25;;;;;16.81;41.58;101273.28;146596;591;50912;-70
2022/02/26 13:00:53;;;;;;;;;3.00;3.00;;;;;16.97;38.40;101265.13;146610;757;46009;-69
2022/02/26 13:03:45;;;;;;;;;9.00;6.50;;;;;16.88;38.78;101269.16;146602;717;47014;-68
2022/02/26 13:06:37;;;;;;;;;13.00;10.50;;;;;16.66;38.77;101283.19;146607;609;46020;-69
2022/02/26 13:09:31;;;;;;;;;7.25;6.75;;;;;16.46;39.33;101278.16;146606;607;45016;-69
2022/02/26 13:12:35;;;;;;;;;7.00;7.00;;;;;16.22;40.57;101266.78;146608;579;46010;-69
2022/02/26 13:15:27;;;;;;;;;6.00;6.00;;;;;16.04;40.53;101275.72;146603;581;46012;-70
2022/02/26 13:18:24;;;;;;;;;4.75;4.75;;;;;15.93;41.23;101262.25;146607;649;46020;-70
2022/02/26 13:21:16;;;;;;;;;4.00;3.00;;;;;15.82;39.95;101263.53;146605;719;46017;-69
2022/02/26 13:24:10;;;;;;;;;4.50;3.00;;;;;15.78;41.34;101266.00;146606;702;46010;-70